createdAt,value
2016-03-07T00:00:59.344Z,984.33
2016-03-07T00:01:59.362Z,984.31
2016-03-07T00:02:59.366Z,984.32
2016-03-07T00:03:59.383Z,984.33
2016-03-07T00:04:59.386Z,984.32
2016-03-07T00:05:59.404Z,984.34
2016-03-07T00:06:59.407Z,984.34
2016-03-07T00:07:59.426Z,984.34
2016-03-07T00:08:59.443Z,984.35
2016-03-07T00:09:59.446Z,984.35
2016-03-07T00:10:59.449Z,984.38
2016-03-07T00:11:59.468Z,984.37
2016-03-07T00:12:59.471Z,984.38
2016-03-07T00:13:59.489Z,984.42
2016-03-07T00:14:59.506Z,984.4
2016-03-07T00:15:59.510Z,984.41
2016-03-07T00:16:59.528Z,984.41
2016-03-07T00:17:59.530Z,984.4
2016-03-07T00:18:59.549Z,984.44
2016-03-07T00:19:59.567Z,984.41
2016-03-07T00:20:59.570Z,984.42
2016-03-07T00:21:59.589Z,984.4
2016-03-07T00:22:59.591Z,984.43
2016-03-07T00:23:59.608Z,984.41
2016-03-07T00:24:59.628Z,984.43
2016-03-07T00:25:59.630Z,984.4
2016-03-07T00:26:59.648Z,984.43
2016-03-07T00:27:59.651Z,984.4
2016-03-07T00:28:59.669Z,984.41
2016-03-07T00:29:59.672Z,984.4
2016-03-07T00:30:59.691Z,984.42
2016-03-07T00:31:59.693Z,984.38
2016-03-07T00:32:59.711Z,984.39
2016-03-07T00:33:59.730Z,984.41
2016-03-07T00:34:59.733Z,984.43
2016-03-07T00:35:59.751Z,984.45
2016-03-07T00:36:59.753Z,984.44
2016-03-07T00:37:59.772Z,984.43
2016-03-07T00:38:59.774Z,984.45
2016-03-07T00:39:59.793Z,984.44
2016-03-07T00:40:59.796Z,984.46
2016-03-07T00:41:59.814Z,984.47
2016-03-07T00:42:59.817Z,984.43
2016-03-07T00:43:59.835Z,984.5
2016-03-07T00:44:59.853Z,984.49
2016-03-07T00:45:59.855Z,984.5
2016-03-07T00:46:59.874Z,984.47
2016-03-07T00:47:59.876Z,984.47
2016-03-07T00:48:59.895Z,984.5
2016-03-07T00:49:59.929Z,984.51
2016-03-07T00:50:59.916Z,984.52
2016-03-07T00:51:59.934Z,984.53
2016-03-07T00:52:59.937Z,984.51
2016-03-07T00:53:59.955Z,984.48
2016-03-07T00:54:59.974Z,984.48
2016-03-07T00:55:59.977Z,984.51
2016-03-07T00:56:59.979Z,984.51
2016-03-07T00:57:59.997Z,984.53
2016-03-07T00:59:00.016Z,984.54
2016-03-07T01:00:00.019Z,984.52
2016-03-07T01:01:00.036Z,984.51
2016-03-07T01:02:00.039Z,984.5
2016-03-07T01:03:00.058Z,984.51
2016-03-07T01:04:00.060Z,984.52
2016-03-07T01:05:00.079Z,984.53
2016-03-07T01:06:00.082Z,984.52
2016-03-07T01:07:00.099Z,984.55
2016-03-07T01:08:00.119Z,984.6
2016-03-07T01:09:00.121Z,984.57
2016-03-07T01:10:00.139Z,984.55
2016-03-07T01:11:00.142Z,984.58
2016-03-07T01:12:00.160Z,984.58
2016-03-07T01:13:00.178Z,984.56
2016-03-07T01:14:00.181Z,984.6
2016-03-07T01:15:00.184Z,984.58
2016-03-07T01:16:00.201Z,984.57
2016-03-07T01:17:00.221Z,984.53
2016-03-07T01:18:00.223Z,984.59
2016-03-07T01:19:00.242Z,984.55
2016-03-07T01:20:00.244Z,984.54
2016-03-07T01:21:00.262Z,984.57
2016-03-07T01:22:00.265Z,984.54
2016-03-07T01:23:00.283Z,984.55
2016-03-07T01:24:00.302Z,984.48
2016-03-07T01:25:00.305Z,984.53
2016-03-07T01:26:00.323Z,984.55
2016-03-07T01:27:00.326Z,984.54
2016-03-07T01:28:00.344Z,984.56
2016-03-07T01:29:00.346Z,984.56
2016-03-07T01:30:00.365Z,984.55
2016-03-07T01:31:00.383Z,984.52
2016-03-07T01:32:00.385Z,984.56
2016-03-07T01:33:00.404Z,984.6
2016-03-07T01:34:00.422Z,984.58
2016-03-07T01:35:00.424Z,984.56
2016-03-07T01:36:00.428Z,984.59
2016-03-07T01:37:00.446Z,984.61
2016-03-07T01:38:00.448Z,984.54
2016-03-07T01:39:00.468Z,984.55
2016-03-07T01:40:00.485Z,984.5
2016-03-07T01:41:00.488Z,984.5
2016-03-07T01:42:00.506Z,984.55
2016-03-07T01:43:00.524Z,984.5
2016-03-07T01:44:00.527Z,984.54
2016-03-07T01:45:00.546Z,984.53
2016-03-07T01:46:00.548Z,984.51
2016-03-07T01:47:00.567Z,984.55
2016-03-07T01:48:00.570Z,984.53
2016-03-07T01:49:00.587Z,984.49
2016-03-07T01:50:00.590Z,984.53
2016-03-07T01:51:00.608Z,984.51
2016-03-07T01:52:00.612Z,984.53
2016-03-07T01:53:00.630Z,984.48
2016-03-07T01:54:00.633Z,984.52
2016-03-07T01:55:00.651Z,984.51
2016-03-07T01:56:00.653Z,984.53
2016-03-07T01:57:00.672Z,984.53
2016-03-07T01:58:00.690Z,984.53
2016-03-07T01:59:00.692Z,984.53
2016-03-07T02:00:00.710Z,984.56
2016-03-07T02:01:00.714Z,984.5
2016-03-07T02:02:00.732Z,984.57
2016-03-07T02:03:00.735Z,984.55
2016-03-07T02:04:00.753Z,984.57
2016-03-07T02:05:00.771Z,984.56
2016-03-07T02:06:00.774Z,984.56
2016-03-07T02:07:00.793Z,984.54
2016-03-07T02:08:00.795Z,984.58
2016-03-07T02:09:00.813Z,984.56
2016-03-07T02:10:00.816Z,984.58
2016-03-07T02:11:00.835Z,984.63
2016-03-07T02:12:00.837Z,984.63
2016-03-07T02:13:00.855Z,984.63
2016-03-07T02:14:00.874Z,984.63
2016-03-07T02:15:00.876Z,984.61
2016-03-07T02:16:00.895Z,984.63
2016-03-07T02:17:00.898Z,984.62
2016-03-07T02:18:00.915Z,984.61
2016-03-07T02:19:00.934Z,984.61
2016-03-07T02:20:00.937Z,984.59
2016-03-07T02:21:00.956Z,984.59
2016-03-07T02:22:00.959Z,984.6
2016-03-07T02:23:00.961Z,984.64
2016-03-07T02:24:00.979Z,984.6
2016-03-07T02:25:00.997Z,984.61
2016-03-07T02:26:01.000Z,984.6
2016-03-07T02:27:01.018Z,984.59
2016-03-07T02:28:01.020Z,984.54
2016-03-07T02:29:01.040Z,984.59
2016-03-07T02:30:01.058Z,984.59
2016-03-07T02:31:01.061Z,984.59
2016-03-07T02:32:01.063Z,984.59
2016-03-07T02:33:01.081Z,984.58
2016-03-07T02:34:01.099Z,984.58
2016-03-07T02:35:01.102Z,984.6
2016-03-07T02:36:01.121Z,984.53
2016-03-07T02:37:01.139Z,984.57
2016-03-07T02:38:01.142Z,984.6
2016-03-07T02:39:01.160Z,984.56
2016-03-07T02:40:01.163Z,984.59
2016-03-07T02:41:01.180Z,984.58
2016-03-07T02:42:01.183Z,984.56
2016-03-07T02:43:01.202Z,984.62
2016-03-07T02:44:01.204Z,984.56
2016-03-07T02:45:01.224Z,984.56
2016-03-07T02:46:01.241Z,984.56
2016-03-07T02:47:01.244Z,984.57
2016-03-07T02:48:01.246Z,984.57
2016-03-07T02:49:01.281Z,984.58
2016-03-07T02:50:01.284Z,984.59
2016-03-07T02:51:01.286Z,984.6
2016-03-07T02:52:01.304Z,984.6
2016-03-07T02:53:01.307Z,984.61
2016-03-07T02:54:01.326Z,984.55
2016-03-07T02:55:01.328Z,984.6
2016-03-07T02:56:01.346Z,984.59
2016-03-07T02:57:01.364Z,984.61
2016-03-07T02:58:01.367Z,984.63
2016-03-07T02:59:01.386Z,984.59
2016-03-07T03:00:01.388Z,984.59
2016-03-07T03:01:01.407Z,984.56
2016-03-07T03:02:01.409Z,984.57
2016-03-07T03:03:01.428Z,984.6
2016-03-07T03:04:01.430Z,984.6
2016-03-07T03:05:01.449Z,984.59
2016-03-07T03:06:01.452Z,984.59
2016-03-07T03:07:01.469Z,984.57
2016-03-07T03:08:01.488Z,984.61
2016-03-07T03:09:01.491Z,984.61
2016-03-07T03:10:01.494Z,984.61
2016-03-07T03:11:01.511Z,984.63
2016-03-07T03:12:01.514Z,984.66
2016-03-07T03:13:01.533Z,984.64
2016-03-07T03:14:01.566Z,984.66
2016-03-07T03:15:01.554Z,984.66
2016-03-07T03:16:01.571Z,984.68
2016-03-07T03:17:01.575Z,984.66
2016-03-07T03:18:01.609Z,984.65
2016-03-07T03:19:01.612Z,984.64
2016-03-07T03:20:01.614Z,984.64
2016-03-07T03:21:01.632Z,984.66
2016-03-07T03:22:01.635Z,984.68
2016-03-07T03:23:01.653Z,984.64
2016-03-07T03:24:01.671Z,984.66
2016-03-07T03:25:01.674Z,984.63
2016-03-07T03:26:01.677Z,984.66
2016-03-07T03:27:01.695Z,984.65
2016-03-07T03:28:01.698Z,984.64
2016-03-07T03:29:01.732Z,984.63
2016-03-07T03:30:01.719Z,984.66
2016-03-07T03:31:01.737Z,984.67
2016-03-07T03:32:01.755Z,984.67
2016-03-07T03:33:01.758Z,984.65
2016-03-07T03:34:01.777Z,984.65
2016-03-07T03:35:01.780Z,984.62
2016-03-07T03:36:01.798Z,984.63
2016-03-07T03:37:01.800Z,984.66
2016-03-07T03:38:01.819Z,984.65
2016-03-07T03:39:01.836Z,984.63
2016-03-07T03:40:01.839Z,984.67
2016-03-07T03:41:01.858Z,984.66
2016-03-07T03:42:01.861Z,984.66
2016-03-07T03:43:01.879Z,984.67
2016-03-07T03:44:01.897Z,984.68
2016-03-07T03:45:01.900Z,984.66
2016-03-07T03:46:01.918Z,984.67
2016-03-07T03:47:01.921Z,984.68
2016-03-07T03:48:01.939Z,984.69
2016-03-07T03:49:01.942Z,984.69
2016-03-07T03:50:01.945Z,984.69
2016-03-07T03:51:01.963Z,984.71
2016-03-07T03:52:01.981Z,984.75
2016-03-07T03:53:01.984Z,984.72
2016-03-07T03:54:02.001Z,984.7
2016-03-07T03:55:02.004Z,984.73
2016-03-07T03:56:02.023Z,984.7
2016-03-07T03:57:02.026Z,984.69
2016-03-07T03:58:02.044Z,984.72
2016-03-07T03:59:02.063Z,984.76
2016-03-07T04:00:02.065Z,984.74
2016-03-07T04:01:02.084Z,984.75
2016-03-07T04:02:02.102Z,984.76
2016-03-07T04:03:02.105Z,984.77
2016-03-07T04:04:02.107Z,984.78
2016-03-07T04:05:02.126Z,984.81
2016-03-07T04:06:02.144Z,984.77
2016-03-07T04:07:02.162Z,984.79
2016-03-07T04:08:02.164Z,984.74
2016-03-07T04:09:02.167Z,984.76
2016-03-07T04:10:02.186Z,984.79
2016-03-07T04:11:02.189Z,984.81
2016-03-07T04:12:02.207Z,984.76
2016-03-07T04:13:02.210Z,984.75
2016-03-07T04:14:02.228Z,984.79
2016-03-07T04:15:02.231Z,984.82
2016-03-07T04:16:02.249Z,984.81
2016-03-07T04:17:02.267Z,984.83
2016-03-07T04:18:02.270Z,984.82
2016-03-07T04:19:02.288Z,984.82
2016-03-07T04:20:02.291Z,984.82
2016-03-07T04:21:02.309Z,984.81
2016-03-07T04:22:02.312Z,984.82
2016-03-07T04:23:02.329Z,984.83
2016-03-07T04:24:02.332Z,984.83
2016-03-07T04:25:02.351Z,984.84
2016-03-07T04:26:02.370Z,984.87
2016-03-07T04:27:02.372Z,984.84
2016-03-07T04:28:02.391Z,984.84
2016-03-07T04:29:02.393Z,984.87
2016-03-07T04:30:02.412Z,984.87
2016-03-07T04:31:02.414Z,984.87
2016-03-07T04:32:02.433Z,984.88
2016-03-07T04:33:02.435Z,984.88
2016-03-07T04:34:02.454Z,984.9
2016-03-07T04:35:02.456Z,984.95
2016-03-07T04:36:02.478Z,984.94
2016-03-07T04:37:02.480Z,984.94
2016-03-07T04:38:02.499Z,984.98
2016-03-07T04:39:02.517Z,984.95
2016-03-07T04:40:02.520Z,984.98
2016-03-07T04:41:02.526Z,984.97
2016-03-07T04:42:02.545Z,984.98
2016-03-07T04:43:02.547Z,985.01
2016-03-07T04:44:02.566Z,984.99
2016-03-07T04:45:02.584Z,985.04
2016-03-07T04:46:02.587Z,985.03
2016-03-07T04:47:02.589Z,985.02
2016-03-07T04:48:02.607Z,985.09
2016-03-07T04:49:02.626Z,985.06
2016-03-07T04:50:02.629Z,985.08
2016-03-07T04:51:02.647Z,985.09
2016-03-07T04:52:02.650Z,985.09
2016-03-07T04:53:02.668Z,985.12
2016-03-07T04:54:02.686Z,985.09
2016-03-07T04:55:02.689Z,985.12
2016-03-07T04:56:02.707Z,985.12
2016-03-07T04:57:02.710Z,985.12
2016-03-07T04:58:02.728Z,985.1
2016-03-07T04:59:02.731Z,985.14
2016-03-07T05:00:02.780Z,985.13
2016-03-07T05:01:02.783Z,985.16
2016-03-07T05:02:02.802Z,985.11
2016-03-07T05:03:02.772Z,985.12
2016-03-07T05:04:02.791Z,985.1
2016-03-07T05:05:02.809Z,985.1
2016-03-07T05:06:02.819Z,985.15
2016-03-07T05:07:02.822Z,985.12
2016-03-07T05:08:02.841Z,985.17
2016-03-07T05:09:02.860Z,985.16
2016-03-07T05:10:02.862Z,985.14
2016-03-07T05:11:02.880Z,985.18
2016-03-07T05:12:02.883Z,985.17
2016-03-07T05:13:02.901Z,985.17
2016-03-07T05:14:02.904Z,985.22
2016-03-07T05:15:02.922Z,985.17
2016-03-07T05:16:02.925Z,985.19
2016-03-07T05:17:02.943Z,985.25
2016-03-07T05:18:02.946Z,985.21
2016-03-07T05:19:02.964Z,985.22
2016-03-07T05:20:02.967Z,985.25
2016-03-07T05:21:02.984Z,985.25
2016-03-07T05:22:02.987Z,985.28
2016-03-07T05:23:03.006Z,985.29
2016-03-07T05:24:03.025Z,985.29
2016-03-07T05:25:03.027Z,985.3
2016-03-07T05:26:03.030Z,985.33
2016-03-07T05:27:03.048Z,985.34
2016-03-07T05:28:03.067Z,985.35
2016-03-07T05:29:03.069Z,985.35
2016-03-07T05:30:03.088Z,985.36
2016-03-07T05:31:03.090Z,985.36
2016-03-07T05:32:03.109Z,985.32
2016-03-07T05:33:03.111Z,985.38
2016-03-07T05:34:03.130Z,985.38
2016-03-07T05:35:03.132Z,985.39
2016-03-07T05:36:03.150Z,985.4
2016-03-07T05:37:03.153Z,985.39
2016-03-07T05:38:03.172Z,985.39
2016-03-07T05:39:03.190Z,985.42
2016-03-07T05:40:03.193Z,985.41
2016-03-07T05:41:03.211Z,985.43
2016-03-07T05:42:03.213Z,985.44
2016-03-07T05:43:03.232Z,985.5
2016-03-07T05:44:03.234Z,985.48
2016-03-07T05:45:03.253Z,985.46
2016-03-07T05:46:03.271Z,985.5
2016-03-07T05:47:03.274Z,985.5
2016-03-07T05:48:03.292Z,985.54
2016-03-07T05:49:03.295Z,985.49
2016-03-07T05:50:03.312Z,985.5
2016-03-07T05:51:03.316Z,985.56
2016-03-07T05:52:03.334Z,985.57
2016-03-07T05:53:03.353Z,985.54
2016-03-07T05:54:03.355Z,985.57
2016-03-07T05:55:03.374Z,985.61
2016-03-07T05:56:03.376Z,985.62
2016-03-07T05:57:03.395Z,985.6
2016-03-07T05:58:03.397Z,985.66
2016-03-07T05:59:03.416Z,985.63
2016-03-07T06:00:03.434Z,985.68
2016-03-07T06:01:03.437Z,985.65
2016-03-07T06:02:03.439Z,985.68
2016-03-07T06:03:03.458Z,985.71
2016-03-07T06:04:03.475Z,985.69
2016-03-07T06:05:03.478Z,985.71
2016-03-07T06:06:03.497Z,985.74
2016-03-07T06:07:03.499Z,985.75
2016-03-07T06:08:03.518Z,985.78
2016-03-07T06:09:03.536Z,985.75
2016-03-07T06:10:03.539Z,985.76
2016-03-07T06:11:03.557Z,985.77
2016-03-07T06:12:03.560Z,985.73
2016-03-07T06:13:03.578Z,985.78
2016-03-07T06:14:03.581Z,985.78
2016-03-07T06:15:03.599Z,985.79
2016-03-07T06:16:03.602Z,985.81
2016-03-07T06:17:03.620Z,985.86
2016-03-07T06:18:03.638Z,985.84
2016-03-07T06:19:03.640Z,985.87
2016-03-07T06:20:03.660Z,985.88
2016-03-07T06:21:03.678Z,985.86
2016-03-07T06:22:03.681Z,985.86
2016-03-07T06:23:03.683Z,985.87
2016-03-07T06:24:03.702Z,985.88
2016-03-07T06:25:03.720Z,985.9
2016-03-07T06:26:03.723Z,985.89
2016-03-07T06:27:03.741Z,985.93
2016-03-07T06:28:03.744Z,985.94
2016-03-07T06:29:03.762Z,985.92
2016-03-07T06:30:03.765Z,985.93
2016-03-07T06:31:03.783Z,985.93
2016-03-07T06:32:03.786Z,985.97
2016-03-07T06:33:03.803Z,985.92
2016-03-07T06:34:03.822Z,985.92
2016-03-07T06:35:03.825Z,985.94
2016-03-07T06:36:03.843Z,985.97
2016-03-07T06:37:03.861Z,985.97
2016-03-07T06:38:03.864Z,986
2016-03-07T06:39:03.867Z,986
2016-03-07T06:40:03.885Z,985.98
2016-03-07T06:41:03.904Z,986.03
2016-03-07T06:42:03.906Z,986.06
2016-03-07T06:43:03.925Z,986.09
2016-03-07T06:44:03.927Z,986.04
2016-03-07T06:45:03.946Z,986.08
2016-03-07T06:46:03.948Z,986.07
2016-03-07T06:47:03.966Z,986.11
2016-03-07T06:48:03.984Z,986.15
2016-03-07T06:49:03.988Z,986.12
2016-03-07T06:50:03.990Z,986.1
2016-03-07T06:51:04.009Z,986.11
2016-03-07T06:52:04.027Z,986.13
2016-03-07T06:53:04.062Z,986.1
2016-03-07T06:54:04.048Z,986.14
2016-03-07T06:55:04.067Z,986.13
2016-03-07T06:56:04.069Z,986.17
2016-03-07T06:57:04.067Z,986.17
2016-03-07T06:58:04.070Z,986.18
2016-03-07T06:59:04.074Z,986.19
2016-03-07T07:00:04.062Z,986.18
2016-03-07T07:01:04.065Z,986.2
2016-03-07T07:02:04.073Z,986.19
2016-03-07T07:03:04.070Z,986.19
2016-03-07T07:04:04.083Z,986.24
2016-03-07T07:05:04.096Z,986.21
2016-03-07T07:06:04.096Z,986.25
2016-03-07T07:07:04.092Z,986.28
2016-03-07T07:08:04.107Z,986.27
2016-03-07T07:09:04.124Z,986.29
2016-03-07T07:10:04.125Z,986.3
2016-03-07T07:11:04.141Z,986.31
2016-03-07T07:12:04.142Z,986.33
2016-03-07T07:13:04.159Z,986.34
2016-03-07T07:14:04.161Z,986.35
2016-03-07T07:15:04.178Z,986.37
2016-03-07T07:16:04.197Z,986.37
2016-03-07T07:17:04.204Z,986.39
2016-03-07T07:18:04.206Z,986.4
2016-03-07T07:19:04.224Z,986.35
2016-03-07T07:20:04.227Z,986.41
2016-03-07T07:21:04.245Z,986.37
2016-03-07T07:22:04.263Z,986.4
2016-03-07T07:23:04.265Z,986.39
2016-03-07T07:24:04.282Z,986.44
2016-03-07T07:25:04.286Z,986.44
2016-03-07T07:26:04.304Z,986.41
2016-03-07T07:27:04.323Z,986.44
2016-03-07T07:28:04.325Z,986.46
2016-03-07T07:29:04.343Z,986.46
2016-03-07T07:30:04.345Z,986.48
2016-03-07T07:31:04.364Z,986.45
2016-03-07T07:32:04.367Z,986.49
2016-03-07T07:33:04.386Z,986.52
2016-03-07T07:34:04.404Z,986.49
2016-03-07T07:35:04.422Z,986.55
2016-03-07T07:36:04.425Z,986.52
2016-03-07T07:37:04.428Z,986.52
2016-03-07T07:38:04.445Z,986.56
2016-03-07T07:39:04.464Z,986.55
2016-03-07T07:40:04.467Z,986.56
2016-03-07T07:41:04.485Z,986.57
2016-03-07T07:42:04.488Z,986.54
2016-03-07T07:43:04.505Z,986.58
2016-03-07T07:44:04.525Z,986.59
2016-03-07T07:45:04.527Z,986.57
2016-03-07T07:46:04.546Z,986.62
2016-03-07T07:47:04.548Z,986.57
2016-03-07T07:48:04.567Z,986.61
2016-03-07T07:49:04.569Z,986.63
2016-03-07T07:50:04.588Z,986.63
2016-03-07T07:51:04.605Z,986.65
2016-03-07T07:52:04.608Z,986.68
2016-03-07T07:53:04.626Z,986.61
2016-03-07T07:54:04.629Z,986.64
2016-03-07T07:55:04.647Z,986.66
2016-03-07T07:56:04.650Z,986.64
2016-03-07T07:57:04.668Z,986.67
2016-03-07T07:58:04.671Z,986.69
2016-03-07T07:59:04.690Z,986.68
2016-03-07T08:00:04.708Z,986.7
2016-03-07T08:01:04.726Z,986.7
2016-03-07T08:02:04.729Z,986.7
2016-03-07T08:03:04.732Z,986.7
2016-03-07T08:04:04.765Z,986.71
2016-03-07T08:05:04.768Z,986.7
2016-03-07T08:06:04.770Z,986.71
2016-03-07T08:07:04.789Z,986.73
2016-03-07T08:08:04.791Z,986.73
2016-03-07T08:09:04.810Z,986.7
2016-03-07T08:10:04.813Z,986.76
2016-03-07T08:11:04.831Z,986.73
2016-03-07T08:12:04.849Z,986.74
2016-03-07T08:13:04.853Z,986.72
2016-03-07T08:14:04.871Z,986.7
2016-03-07T08:15:04.874Z,986.7
2016-03-07T08:16:04.892Z,986.73
2016-03-07T08:17:04.910Z,986.68
2016-03-07T08:18:04.913Z,986.65
2016-03-07T08:19:04.930Z,986.7
2016-03-07T08:20:04.949Z,986.74
2016-03-07T08:21:04.952Z,986.68
2016-03-07T08:22:04.970Z,986.69
2016-03-07T08:23:04.973Z,986.7
2016-03-07T08:24:04.990Z,986.73
2016-03-07T08:25:04.993Z,986.73
2016-03-07T08:26:05.012Z,986.72
2016-03-07T08:27:05.031Z,986.75
2016-03-07T08:28:05.034Z,986.76
2016-03-07T08:29:05.052Z,986.79
2016-03-07T08:30:05.070Z,986.81
2016-03-07T08:31:05.073Z,986.85
2016-03-07T08:32:05.090Z,986.86
2016-03-07T08:33:05.093Z,986.86
2016-03-07T08:34:05.112Z,986.84
2016-03-07T08:35:05.130Z,986.85
2016-03-07T08:36:05.133Z,986.87
2016-03-07T08:37:05.151Z,986.86
2016-03-07T08:38:05.169Z,986.91
2016-03-07T08:39:05.172Z,986.94
2016-03-07T08:40:05.175Z,986.94
2016-03-07T08:41:05.208Z,986.9
2016-03-07T08:42:05.212Z,986.9
2016-03-07T08:43:05.230Z,986.91
2016-03-07T08:44:05.248Z,986.91
2016-03-07T08:45:05.250Z,986.9
2016-03-07T08:46:05.253Z,986.91
2016-03-07T08:47:05.272Z,986.85
2016-03-07T08:48:05.291Z,986.88
2016-03-07T08:49:05.308Z,986.9
2016-03-07T08:50:05.310Z,986.88
2016-03-07T08:51:05.330Z,986.92
2016-03-07T08:52:05.332Z,986.91
2016-03-07T08:53:05.351Z,986.93
2016-03-07T08:54:05.353Z,986.91
2016-03-07T08:55:05.371Z,986.89
2016-03-07T08:56:05.390Z,986.93
2016-03-07T08:57:05.392Z,986.89
2016-03-07T08:58:05.410Z,986.9
2016-03-07T08:59:05.429Z,986.93
2016-03-07T09:00:05.448Z,986.88
2016-03-07T09:01:05.450Z,986.92
2016-03-07T09:02:05.468Z,986.92
2016-03-07T09:03:05.486Z,986.95
2016-03-07T09:04:05.490Z,986.94
2016-03-07T09:05:05.492Z,986.97
2016-03-07T09:06:05.542Z,986.94
2016-03-07T09:07:05.529Z,986.93
2016-03-07T09:08:05.547Z,986.92
2016-03-07T09:09:05.550Z,986.9
2016-03-07T09:10:05.567Z,986.93
2016-03-07T09:11:05.586Z,986.98
2016-03-07T09:12:05.589Z,986.93
2016-03-07T09:13:05.608Z,986.96
2016-03-07T09:14:05.625Z,986.97
2016-03-07T09:15:05.644Z,986.99
2016-03-07T09:16:05.647Z,986.91
2016-03-07T09:17:05.665Z,986.94
2016-03-07T09:18:05.668Z,986.98
2016-03-07T09:19:05.686Z,986.98
2016-03-07T09:20:05.705Z,986.98
2016-03-07T09:21:05.707Z,986.98
2016-03-07T09:22:05.725Z,986.96
2016-03-07T09:23:05.728Z,986.99
2016-03-07T09:24:05.747Z,987.02
2016-03-07T09:25:05.779Z,987
2016-03-07T09:26:05.782Z,987.02
2016-03-07T09:27:05.785Z,987.02
2016-03-07T09:28:05.804Z,986.97
2016-03-07T09:29:05.822Z,987.02
2016-03-07T09:30:05.825Z,987
2016-03-07T09:31:05.843Z,987.05
2016-03-07T09:32:05.862Z,987.08
2016-03-07T09:33:05.879Z,987.05
2016-03-07T09:34:05.882Z,987.07
2016-03-07T09:35:05.901Z,987.12
2016-03-07T09:36:05.920Z,987.12
2016-03-07T09:37:05.922Z,987.11
2016-03-07T09:38:05.939Z,987.09
2016-03-07T09:39:05.942Z,987.12
2016-03-07T09:40:05.961Z,987.11
2016-03-07T09:41:05.980Z,987.09
2016-03-07T09:42:05.983Z,987.11
2016-03-07T09:43:06.001Z,987.11
2016-03-07T09:44:06.034Z,987.09
2016-03-07T09:45:06.053Z,987.13
2016-03-07T09:46:06.040Z,987.09
2016-03-07T09:47:06.058Z,987.1
2016-03-07T09:48:06.077Z,987.11
2016-03-07T09:49:06.094Z,987.08
2016-03-07T09:50:06.097Z,987.08
2016-03-07T09:51:06.115Z,987.09
2016-03-07T09:52:06.118Z,987.08
2016-03-07T09:53:06.137Z,987.06
2016-03-07T09:54:06.155Z,987.03
2016-03-07T09:55:06.174Z,987.04
2016-03-07T09:56:06.191Z,987.04
2016-03-07T09:57:06.632Z,987.03
2016-03-07T09:58:06.213Z,987.09
2016-03-07T09:59:06.232Z,987.12
2016-03-07T10:00:06.249Z,987.12
2016-03-07T10:01:06.252Z,987.07
2016-03-07T10:02:06.271Z,987.1
2016-03-07T10:03:06.289Z,987.12
2016-03-07T10:04:06.291Z,987.11
2016-03-07T10:05:06.309Z,987.05
2016-03-07T10:06:06.329Z,987.07
2016-03-07T10:07:06.332Z,987.06
2016-03-07T10:08:06.349Z,987.06
2016-03-07T10:09:06.368Z,987.07
2016-03-07T10:10:06.371Z,987.04
2016-03-07T10:11:06.389Z,987.12
2016-03-07T10:12:06.423Z,987.13
2016-03-07T10:13:06.410Z,987.12
2016-03-07T10:14:06.428Z,987.17
2016-03-07T10:15:06.447Z,987.19
2016-03-07T10:16:06.465Z,987.15
2016-03-07T10:17:06.469Z,987.17
2016-03-07T10:18:06.487Z,987.19
2016-03-07T10:19:06.505Z,987.18
2016-03-07T10:20:06.508Z,987.17
2016-03-07T10:21:06.527Z,987.16
2016-03-07T10:22:06.545Z,987.17
2016-03-07T10:23:06.548Z,987.17
2016-03-07T10:24:06.565Z,987.18
2016-03-07T10:25:06.585Z,987.19
2016-03-07T10:26:06.587Z,987.17
2016-03-07T10:27:06.606Z,987.2
2016-03-07T10:28:06.623Z,987.2
2016-03-07T10:29:06.626Z,987.22
2016-03-07T10:30:06.645Z,987.23
2016-03-07T10:31:06.679Z,987.22
2016-03-07T10:32:06.665Z,987.21
2016-03-07T10:33:06.684Z,987.21
2016-03-07T10:34:06.703Z,987.18
2016-03-07T10:35:06.705Z,987.2
2016-03-07T10:36:06.723Z,987.23
2016-03-07T10:37:06.741Z,987.26
2016-03-07T10:38:06.744Z,987.23
2016-03-07T10:39:06.763Z,987.29
2016-03-07T10:40:06.781Z,987.28
2016-03-07T10:41:06.783Z,987.28
2016-03-07T10:42:06.802Z,987.33
2016-03-07T10:43:06.805Z,987.32
2016-03-07T10:44:06.822Z,987.36
2016-03-07T10:45:06.841Z,987.34
2016-03-07T10:46:06.860Z,987.36
2016-03-07T10:47:06.863Z,987.4
2016-03-07T10:48:06.880Z,987.39
2016-03-07T10:49:06.883Z,987.39
2016-03-07T10:50:06.902Z,987.41
2016-03-07T10:51:06.920Z,987.44
2016-03-07T10:52:06.938Z,987.44
2016-03-07T10:53:06.941Z,987.44
2016-03-07T10:54:06.959Z,987.45
2016-03-07T10:55:06.977Z,987.46
2016-03-07T10:56:06.979Z,987.47
2016-03-07T10:57:06.999Z,987.49
2016-03-07T10:58:07.017Z,987.49
2016-03-07T10:59:07.020Z,987.53
2016-03-07T11:00:07.041Z,987.5
2016-03-07T11:01:07.048Z,987.53
2016-03-07T11:02:07.051Z,987.54
2016-03-07T11:03:08.228Z,987.59
2016-03-07T11:04:07.087Z,987.58
2016-03-07T11:05:07.089Z,987.58
2016-03-07T11:06:07.108Z,987.6
2016-03-07T11:07:07.126Z,987.61
2016-03-07T11:08:07.129Z,987.59
2016-03-07T11:09:07.147Z,987.59
2016-03-07T11:10:07.166Z,987.57
2016-03-07T11:11:07.169Z,987.62
2016-03-07T11:12:07.187Z,987.6
2016-03-07T11:13:07.190Z,987.58
2016-03-07T11:14:07.208Z,987.61
2016-03-07T11:15:07.226Z,987.65
2016-03-07T11:16:07.243Z,987.66
2016-03-07T11:17:07.246Z,987.62
2016-03-07T11:18:07.265Z,987.64
2016-03-07T11:19:07.268Z,987.67
2016-03-07T11:20:07.286Z,987.68
2016-03-07T11:21:07.304Z,987.69
2016-03-07T11:22:07.307Z,987.69
2016-03-07T11:23:07.325Z,987.71
2016-03-07T11:24:07.329Z,987.69
2016-03-07T11:25:07.347Z,987.71
2016-03-07T11:26:07.364Z,987.73
2016-03-07T11:27:07.367Z,987.72
2016-03-07T11:28:07.386Z,987.74
2016-03-07T11:29:07.403Z,987.73
2016-03-07T11:30:07.422Z,987.72
2016-03-07T11:31:07.425Z,987.74
2016-03-07T11:32:07.444Z,987.72
2016-03-07T11:33:07.446Z,987.77
2016-03-07T11:34:07.464Z,987.77
2016-03-07T11:35:07.483Z,987.72
2016-03-07T11:36:07.485Z,987.72
2016-03-07T11:37:07.504Z,987.71
2016-03-07T11:38:07.522Z,987.72
2016-03-07T11:39:07.541Z,987.71
2016-03-07T11:40:07.543Z,987.69
2016-03-07T11:41:07.545Z,987.71
2016-03-07T11:42:07.564Z,987.72
2016-03-07T11:43:07.582Z,987.69
2016-03-07T11:44:07.601Z,987.77
2016-03-07T11:45:07.603Z,987.72
2016-03-07T11:46:07.622Z,987.68
2016-03-07T11:47:07.640Z,987.67
2016-03-07T11:48:07.642Z,987.68
2016-03-07T11:49:07.662Z,987.69
2016-03-07T11:50:07.664Z,987.72
2016-03-07T11:51:07.681Z,987.69
2016-03-07T11:52:07.701Z,987.67
2016-03-07T11:53:07.719Z,987.64
2016-03-07T11:54:07.721Z,987.63
2016-03-07T11:55:07.739Z,987.6
2016-03-07T11:56:07.758Z,987.59
2016-03-07T11:57:07.761Z,987.59
2016-03-07T11:58:07.778Z,987.55
2016-03-07T11:59:07.797Z,987.58
2016-03-07T12:00:07.800Z,987.62
2016-03-07T12:01:07.819Z,987.53
2016-03-07T12:02:07.837Z,987.52
2016-03-07T12:03:07.839Z,987.49
2016-03-07T12:04:07.858Z,987.53
2016-03-07T12:05:07.875Z,987.53
2016-03-07T12:06:07.882Z,987.52
2016-03-07T12:07:07.902Z,987.56
2016-03-07T12:08:07.916Z,987.55
2016-03-07T12:09:07.918Z,987.51
2016-03-07T12:10:07.935Z,987.53
2016-03-07T12:11:07.955Z,987.47
2016-03-07T12:12:07.957Z,987.42
2016-03-07T12:13:07.975Z,987.4
2016-03-07T12:14:08.009Z,987.41
2016-03-07T12:15:08.012Z,987.41
2016-03-07T12:16:08.029Z,987.38
2016-03-07T12:17:08.032Z,987.4
2016-03-07T12:18:08.052Z,987.36
2016-03-07T12:19:08.070Z,987.37
2016-03-07T12:20:08.072Z,987.38
2016-03-07T12:21:08.090Z,987.36
2016-03-07T12:22:08.109Z,987.41
2016-03-07T12:23:08.128Z,987.41
2016-03-07T12:24:08.130Z,987.42
2016-03-07T12:25:08.148Z,987.37
2016-03-07T12:26:08.151Z,987.38
2016-03-07T12:27:08.169Z,987.39
2016-03-07T12:28:08.187Z,987.41
2016-03-07T12:29:08.206Z,987.41
2016-03-07T12:30:08.209Z,987.45
2016-03-07T12:31:08.228Z,987.44
2016-03-07T12:32:08.245Z,987.42